Ardmore, Missouri
Current Conditions -  °F | °C
As of 8:55 PM on Tuesday 25 Nov 2014 (Local Time) from KIRK Reporting Station
Clear Clear  
Wind Chill: 18°   Ceiling: Unl
Heat Index: 24°   Visibility: 10mi
Dew Point: 19°   Wind: 5mph
Humidity: 81%   Direction: 160°SSE
Pressure: 30.11"   Gusts: NA
Location:  39.6493°N, 92.4492°W
Report Text: KIRK 260255Z AUTO 16004KT 10SM CLR M04/M07 A3011 RMK AO2 SLP212 T10441072 58002
Loading
Personal Weather Stations






























Interactive Weather Map New forecast layout! Learn more

10-Day Weather Forecast

Advertisements
Track Severe Weather on mobile